createdAt,value
2023-03-24T00:00:09.137Z,13.23
2023-03-24T00:02:37.785Z,12.88
2023-03-24T00:05:05.554Z,11.32
2023-03-24T00:07:35.260Z,10.02
2023-03-24T00:10:01.979Z,12.68
2023-03-24T00:12:28.494Z,9.65
2023-03-24T00:14:54.921Z,11.77
2023-03-24T00:17:25.351Z,9.77
2023-03-24T00:19:52.477Z,10.10
2023-03-24T00:22:21.372Z,12.30
2023-03-24T00:24:49.630Z,10.85
2023-03-24T00:27:17.617Z,13.45
2023-03-24T00:29:44.214Z,14.40
2023-03-24T00:32:10.767Z,12.55
2023-03-24T00:34:38.433Z,13.02
2023-03-24T00:37:06.234Z,16.48
2023-03-24T00:39:33.287Z,11.02
2023-03-24T00:42:01.808Z,10.90
2023-03-24T00:44:28.485Z,11.60
2023-03-24T00:46:57.872Z,11.00
2023-03-24T00:49:42.177Z,9.85
2023-03-24T00:52:20.887Z,17.33
2023-03-24T00:54:55.046Z,16.30
2023-03-24T00:57:21.813Z,10.55
2023-03-24T00:59:49.892Z,12.07
2023-03-24T01:02:22.373Z,13.00
2023-03-24T01:05:09.348Z,10.75
2023-03-24T01:07:35.794Z,10.40
2023-03-24T01:10:02.643Z,18.60
2023-03-24T01:12:34.716Z,10.60
2023-03-24T01:15:02.909Z,11.70
2023-03-24T01:17:29.716Z,13.38
2023-03-24T01:19:57.448Z,11.80
2023-03-24T01:22:29.354Z,13.38
2023-03-24T01:24:56.549Z,12.02
2023-03-24T01:27:23.610Z,11.93
2023-03-24T01:29:50.396Z,16.13
2023-03-24T01:32:16.864Z,14.50
2023-03-24T01:34:43.365Z,12.70
2023-03-24T01:37:09.839Z,14.57
2023-03-24T01:39:36.759Z,14.50
2023-03-24T01:42:03.358Z,11.98
2023-03-24T01:44:33.808Z,12.38
2023-03-24T01:47:01.490Z,13.13
2023-03-24T01:49:34.419Z,12.98
2023-03-24T01:52:03.264Z,16.35
2023-03-24T01:54:29.728Z,12.05
2023-03-24T01:57:03.830Z,13.65
2023-03-24T01:59:34.906Z,12.52
2023-03-24T02:02:04.176Z,15.50
2023-03-24T02:04:42.537Z,12.18
2023-03-24T02:07:27.844Z,12.13
2023-03-24T02:09:54.322Z,11.43
2023-03-24T02:12:20.784Z,14.32
2023-03-24T02:14:47.482Z,11.55
2023-03-24T02:17:21.554Z,12.50
2023-03-24T02:20:11.637Z,11.27
2023-03-24T02:23:30.825Z,13.85
2023-03-24T02:26:39.555Z,12.65
2023-03-24T02:29:39.744Z,14.25
2023-03-24T02:32:34.427Z,13.43
2023-03-24T02:35:19.423Z,15.57
2023-03-24T02:38:15.035Z,14.25
2023-03-24T02:41:06.429Z,16.33
2023-03-24T02:43:58.055Z,12.90
2023-03-24T02:46:37.687Z,17.90
2023-03-24T02:49:19.162Z,13.57
2023-03-24T02:51:51.301Z,17.52
2023-03-24T02:54:35.544Z,16.83
2023-03-24T02:57:31.327Z,11.38
2023-03-24T03:00:01.810Z,15.68
2023-03-24T03:02:34.468Z,13.50
2023-03-24T03:05:13.813Z,12.40
2023-03-24T03:07:42.682Z,12.80
2023-03-24T03:10:12.337Z,14.38
2023-03-24T03:12:40.131Z,14.25
2023-03-24T03:15:10.733Z,13.05
2023-03-24T03:17:48.849Z,13.98
2023-03-24T03:20:22.641Z,13.82
2023-03-24T03:22:54.334Z,13.30
2023-03-24T03:25:24.888Z,14.55
2023-03-24T03:27:54.743Z,11.05
2023-03-24T03:30:29.090Z,16.45
2023-03-24T03:33:02.294Z,16.67
2023-03-24T03:35:39.025Z,14.65
2023-03-24T03:38:18.322Z,17.92
2023-03-24T03:40:51.726Z,16.20
2023-03-24T03:43:18.921Z,15.45
2023-03-24T03:45:46.212Z,17.40
2023-03-24T03:48:13.777Z,13.35
2023-03-24T03:50:40.389Z,12.88
2023-03-24T03:53:08.230Z,13.15
2023-03-24T03:55:35.525Z,11.40
2023-03-24T03:58:04.295Z,11.55
2023-03-24T04:00:31.362Z,13.35
2023-03-24T04:03:12.922Z,15.55
2023-03-24T04:05:53.516Z,17.05
2023-03-24T04:08:42.605Z,14.87
2023-03-24T04:11:27.881Z,15.23
2023-03-24T04:14:15.672Z,16.05
2023-03-24T04:17:19.613Z,13.48
2023-03-24T04:20:08.087Z,15.88
2023-03-24T04:22:38.364Z,13.90
2023-03-24T04:25:18.080Z,17.95
2023-03-24T04:28:01.077Z,16.42
2023-03-24T04:30:44.574Z,17.23
2023-03-24T04:33:28.807Z,21.48
2023-03-24T04:36:06.495Z,22.70
2023-03-24T04:38:36.309Z,19.08
2023-03-24T04:41:05.572Z,18.45
2023-03-24T04:43:36.525Z,16.75
2023-03-24T04:46:05.552Z,17.63
2023-03-24T04:48:32.031Z,17.35
2023-03-24T04:51:01.450Z,18.35
2023-03-24T04:53:29.153Z,16.65
2023-03-24T04:56:27.789Z,16.17
2023-03-24T04:58:54.341Z,17.50
2023-03-24T05:01:21.438Z,15.93
2023-03-24T05:03:49.156Z,16.40
2023-03-24T05:06:16.919Z,17.63
2023-03-24T05:08:43.343Z,15.13
2023-03-24T05:11:10.271Z,19.30
2023-03-24T05:13:36.811Z,19.65
2023-03-24T05:16:03.512Z,19.00
2023-03-24T05:18:30.396Z,19.40
2023-03-24T05:20:57.223Z,18.92
2023-03-24T05:23:23.735Z,17.98
2023-03-24T05:25:50.303Z,20.70
2023-03-24T05:28:16.934Z,18.63
2023-03-24T05:30:43.569Z,15.77
2023-03-24T05:33:10.403Z,22.42
2023-03-24T05:35:37.044Z,21.38
2023-03-24T05:38:03.502Z,22.77
2023-03-24T05:40:30.001Z,22.20
2023-03-24T05:42:56.832Z,18.35
2023-03-24T05:45:25.137Z,24.50
2023-03-24T05:47:51.794Z,21.92
2023-03-24T05:50:18.620Z,26.70
2023-03-24T05:52:46.287Z,21.15
2023-03-24T05:55:13.015Z,21.75
2023-03-24T05:57:39.459Z,18.90
2023-03-24T06:00:10.569Z,21.05
2023-03-24T06:02:37.207Z,21.55
2023-03-24T06:05:03.976Z,23.15
2023-03-24T06:07:30.652Z,20.88
2023-03-24T06:10:03.547Z,23.52
2023-03-24T06:12:32.342Z,20.67
2023-03-24T06:14:58.849Z,22.55
2023-03-24T06:17:25.684Z,20.80
2023-03-24T06:19:52.117Z,21.02
2023-03-24T06:22:19.325Z,20.40
2023-03-24T06:24:47.079Z,21.92
2023-03-24T06:27:14.253Z,23.05
2023-03-24T06:29:42.589Z,24.13
2023-03-24T06:32:09.843Z,19.52
2023-03-24T06:34:38.768Z,20.83
2023-03-24T06:37:05.477Z,23.33
2023-03-24T06:39:31.970Z,19.55
2023-03-24T06:41:58.605Z,22.30
2023-03-24T06:44:25.288Z,20.13
2023-03-24T06:46:51.918Z,24.50
2023-03-24T06:49:18.673Z,21.88
2023-03-24T06:51:45.217Z,24.52
2023-03-24T06:54:11.902Z,23.13
2023-03-24T06:56:38.509Z,22.80
2023-03-24T06:59:05.158Z,21.85
2023-03-24T07:01:32.165Z,24.92
2023-03-24T07:03:58.728Z,22.85
2023-03-24T07:06:25.540Z,21.83
2023-03-24T07:08:52.287Z,22.30
2023-03-24T07:11:19.477Z,23.40
2023-03-24T07:13:46.188Z,23.30
2023-03-24T07:16:13.023Z,23.15
2023-03-24T07:18:39.614Z,20.40
2023-03-24T07:21:06.331Z,20.10
2023-03-24T07:23:33.616Z,23.05
2023-03-24T07:26:00.927Z,27.00
2023-03-24T07:28:27.447Z,20.73
2023-03-24T07:30:55.368Z,22.00
2023-03-24T07:33:24.495Z,23.55
2023-03-24T07:35:56.078Z,24.42
2023-03-24T07:38:23.548Z,22.30
2023-03-24T07:40:50.057Z,27.38
2023-03-24T07:43:17.134Z,21.95
2023-03-24T07:45:47.050Z,23.17
2023-03-24T07:48:13.795Z,20.23
2023-03-24T07:50:40.494Z,18.75
2023-03-24T07:53:09.830Z,28.55
2023-03-24T07:55:39.836Z,23.13
2023-03-24T07:58:07.572Z,20.05
2023-03-24T08:00:34.663Z,20.20
2023-03-24T08:03:01.303Z,24.58
2023-03-24T08:05:30.793Z,18.77
2023-03-24T08:07:58.547Z,16.23
2023-03-24T08:10:27.361Z,23.02
2023-03-24T08:12:54.188Z,24.17
2023-03-24T08:15:21.375Z,15.05
2023-03-24T08:17:49.567Z,16.10
2023-03-24T08:20:16.917Z,16.92
2023-03-24T08:22:45.684Z,17.95
2023-03-24T08:25:12.879Z,16.75
2023-03-24T08:27:40.307Z,19.48
2023-03-24T08:30:08.803Z,15.80
2023-03-24T08:32:35.513Z,16.60
2023-03-24T08:35:04.889Z,13.77
2023-03-24T08:37:31.599Z,16.20
2023-03-24T08:39:58.811Z,11.48
2023-03-24T08:42:26.206Z,14.27
2023-03-24T08:44:53.106Z,22.98
2023-03-24T08:47:19.903Z,17.33
2023-03-24T08:49:46.743Z,10.27
2023-03-24T08:52:13.470Z,12.65
2023-03-24T08:54:40.226Z,14.05
2023-03-24T08:57:06.956Z,11.77
2023-03-24T08:59:33.470Z,10.65
2023-03-24T09:02:00.136Z,10.15
2023-03-24T09:04:27.489Z,10.45
2023-03-24T09:07:02.307Z,9.50
2023-03-24T09:09:30.404Z,13.65
2023-03-24T09:11:57.264Z,8.93
2023-03-24T09:14:24.308Z,9.52
2023-03-24T09:16:51.420Z,9.68
2023-03-24T09:19:18.100Z,10.50
2023-03-24T09:21:46.991Z,12.18
2023-03-24T09:24:14.038Z,7.38
2023-03-24T09:26:41.122Z,11.20
2023-03-24T09:29:08.293Z,10.80
2023-03-24T09:31:34.888Z,10.68
2023-03-24T09:34:04.116Z,9.88
2023-03-24T09:36:31.285Z,9.15
2023-03-24T09:38:57.900Z,9.98
2023-03-24T09:41:30.137Z,9.63
2023-03-24T09:44:03.152Z,7.60
2023-03-24T09:46:43.241Z,9.70
2023-03-24T09:49:17.618Z,8.10
2023-03-24T09:51:46.325Z,8.60
2023-03-24T09:54:27.414Z,5.80
2023-03-24T09:56:58.482Z,10.82
2023-03-24T10:02:18.263Z,9.75
2023-03-24T10:04:45.331Z,7.75
2023-03-24T10:07:30.481Z,8.07
2023-03-24T10:09:59.344Z,7.95
2023-03-24T10:12:35.186Z,6.03
2023-03-24T10:15:04.620Z,8.68
2023-03-24T10:17:47.030Z,5.15
2023-03-24T10:20:37.094Z,8.60
2023-03-24T10:23:36.117Z,4.97
2023-03-24T10:26:32.763Z,4.82
2023-03-24T10:29:23.966Z,7.10
2023-03-24T10:32:02.639Z,7.45
2023-03-24T10:34:33.048Z,6.32
2023-03-24T10:37:02.929Z,5.97
2023-03-24T10:39:41.916Z,6.97
2023-03-24T10:42:21.785Z,6.55
2023-03-24T10:44:51.080Z,5.32
2023-03-24T10:47:24.243Z,9.93
2023-03-24T10:49:53.852Z,5.25
2023-03-24T10:52:20.933Z,6.68
2023-03-24T10:54:56.263Z,5.10
2023-03-24T10:57:24.869Z,6.38
2023-03-24T11:00:24.445Z,6.65
2023-03-24T11:03:01.439Z,9.50
2023-03-24T11:05:30.872Z,6.72
2023-03-24T11:08:11.771Z,8.88
2023-03-24T11:10:38.723Z,5.57
2023-03-24T11:13:07.849Z,5.55
2023-03-24T11:15:37.434Z,5.03
2023-03-24T11:18:14.245Z,5.90
2023-03-24T11:20:45.614Z,6.13
2023-03-24T11:23:38.366Z,6.97
2023-03-24T11:26:18.624Z,9.50
2023-03-24T11:28:57.202Z,6.00
2023-03-24T11:31:30.817Z,4.63
2023-03-24T11:34:14.764Z,6.05
2023-03-24T11:37:01.784Z,7.18
2023-03-24T11:39:31.637Z,8.52
2023-03-24T11:42:10.443Z,10.02
2023-03-24T11:44:39.868Z,6.35
2023-03-24T11:47:12.292Z,5.05
2023-03-24T11:49:48.767Z,6.13
2023-03-24T11:52:25.412Z,11.30
2023-03-24T11:54:52.103Z,8.63
2023-03-24T11:57:42.694Z,7.75
2023-03-24T12:00:42.078Z,11.23
2023-03-24T12:03:32.937Z,13.50
2023-03-24T12:06:06.804Z,9.60
2023-03-24T12:08:49.107Z,7.90
2023-03-24T12:11:51.083Z,8.90
2023-03-24T12:14:29.947Z,11.35
2023-03-24T12:17:13.779Z,13.48
2023-03-24T12:20:05.040Z,7.55
2023-03-24T12:22:39.046Z,9.18
2023-03-24T12:25:12.210Z,13.10
2023-03-24T12:27:52.379Z,7.38
2023-03-24T12:30:50.795Z,7.70
2023-03-24T12:33:38.274Z,6.28
2023-03-24T12:36:13.458Z,8.00
2023-03-24T12:38:46.083Z,7.68
2023-03-24T12:41:24.940Z,8.25
2023-03-24T12:44:22.921Z,8.48
2023-03-24T12:47:10.860Z,7.15
2023-03-24T12:49:56.088Z,7.75
2023-03-24T12:52:43.797Z,5.80
2023-03-24T12:55:14.496Z,7.72
2023-03-24T12:57:48.940Z,11.07
2023-03-24T13:00:23.279Z,7.00
2023-03-24T13:02:57.740Z,7.68
2023-03-24T13:05:31.978Z,6.65
2023-03-24T13:08:13.870Z,7.85
2023-03-24T13:10:42.222Z,6.00
2023-03-24T13:13:22.536Z,6.20
2023-03-24T13:16:00.662Z,5.15
2023-03-24T13:18:39.388Z,8.10
2023-03-24T13:21:37.679Z,9.38
2023-03-24T13:24:13.598Z,3.65
2023-03-24T13:27:00.503Z,9.50
2023-03-24T13:30:00.038Z,9.23
2023-03-24T13:32:35.472Z,7.18
2023-03-24T13:35:13.654Z,10.05
2023-03-24T13:38:01.308Z,9.65
2023-03-24T13:40:32.358Z,9.38
2023-03-24T13:43:06.412Z,5.97
2023-03-24T13:45:47.991Z,7.82
2023-03-24T13:48:17.597Z,7.25
2023-03-24T13:50:55.820Z,13.85
2023-03-24T13:53:43.310Z,6.63
2023-03-24T13:56:12.396Z,10.90
2023-03-24T13:59:06.913Z,9.40
2023-03-24T14:01:39.576Z,7.38
2023-03-24T14:04:27.106Z,14.40
2023-03-24T14:06:54.910Z,9.65
2023-03-24T14:09:22.752Z,8.77
2023-03-24T14:11:56.224Z,9.45
2023-03-24T14:14:24.819Z,11.70
2023-03-24T14:16:52.248Z,10.48
2023-03-24T14:19:22.083Z,8.57
2023-03-24T14:22:04.539Z,8.20
2023-03-24T14:24:33.013Z,6.68
2023-03-24T14:26:59.628Z,9.68
2023-03-24T14:29:36.198Z,6.85
2023-03-24T14:32:17.105Z,7.95
2023-03-24T14:35:00.099Z,9.38
2023-03-24T14:37:28.562Z,10.35
2023-03-24T14:39:58.172Z,5.80
2023-03-24T14:42:33.884Z,5.97
2023-03-24T14:45:06.984Z,9.50
2023-03-24T14:47:37.560Z,6.82
2023-03-24T14:50:21.188Z,7.97
2023-03-24T14:52:57.499Z,4.70
2023-03-24T14:55:25.620Z,9.20
2023-03-24T14:57:56.392Z,12.32
2023-03-24T15:00:28.825Z,9.65
2023-03-24T15:03:11.091Z,7.55
2023-03-24T15:05:38.905Z,7.60
2023-03-24T15:08:23.675Z,7.07
2023-03-24T15:11:04.652Z,10.10
2023-03-24T15:13:36.164Z,7.53
2023-03-24T15:16:24.527Z,11.07
2023-03-24T15:19:01.839Z,8.07
2023-03-24T15:21:35.062Z,9.48
2023-03-24T15:24:03.998Z,9.00
2023-03-24T15:26:32.148Z,8.43
2023-03-24T15:29:11.133Z,8.85
2023-03-24T15:31:39.520Z,9.20
2023-03-24T15:34:29.845Z,16.63
2023-03-24T15:36:58.781Z,6.22
2023-03-24T15:39:36.338Z,7.57
2023-03-24T15:42:08.804Z,11.45
2023-03-24T15:44:39.620Z,9.43
2023-03-24T15:47:16.190Z,8.45
2023-03-24T15:49:52.710Z,17.50
2023-03-24T15:52:34.864Z,6.30
2023-03-24T15:55:21.833Z,8.52
2023-03-24T15:57:48.473Z,6.85
2023-03-24T16:00:19.734Z,5.38
2023-03-24T16:02:52.476Z,10.93
2023-03-24T16:05:25.802Z,16.30
2023-03-24T16:08:08.033Z,10.52
2023-03-24T16:10:42.703Z,7.15
2023-03-24T16:13:15.695Z,7.30
2023-03-24T16:16:03.728Z,8.25
2023-03-24T16:18:34.810Z,6.80
2023-03-24T16:23:30.505Z,8.55
2023-03-24T16:25:56.967Z,5.20
2023-03-24T16:28:24.852Z,6.50
2023-03-24T16:31:02.015Z,6.22
2023-03-24T16:33:30.371Z,9.52
2023-03-24T16:35:56.872Z,11.75
2023-03-24T16:38:23.414Z,4.25
2023-03-24T16:40:52.835Z,3.80
2023-03-24T16:43:20.427Z,6.18
2023-03-24T16:45:48.694Z,6.20
2023-03-24T16:48:16.343Z,5.60
2023-03-24T16:50:45.952Z,3.85
2023-03-24T16:53:12.566Z,6.90
2023-03-24T16:55:41.678Z,3.85
2023-03-24T16:58:08.544Z,2.67
2023-03-24T17:00:39.196Z,5.45
2023-03-24T17:03:06.910Z,4.32
2023-03-24T17:05:41.192Z,3.22
2023-03-24T17:08:07.880Z,5.97
2023-03-24T17:10:34.445Z,3.53
2023-03-24T17:13:02.096Z,3.80
2023-03-24T17:15:30.648Z,11.80
2023-03-24T17:17:57.187Z,3.13
2023-03-24T17:20:24.708Z,3.53
2023-03-24T17:22:54.330Z,2.88
2023-03-24T17:25:23.102Z,4.45
2023-03-24T17:27:51.277Z,3.85
2023-03-24T17:30:23.339Z,6.57
2023-03-24T17:32:50.370Z,4.60
2023-03-24T17:35:19.901Z,3.17
2023-03-24T17:37:48.210Z,4.45
2023-03-24T17:40:17.119Z,3.92
2023-03-24T17:42:46.466Z,4.50
2023-03-24T17:45:17.873Z,6.45
2023-03-24T17:50:12.068Z,2.78
2023-03-24T17:52:43.052Z,4.43
2023-03-24T17:55:11.347Z,7.15
2023-03-24T17:57:37.809Z,6.57
2023-03-24T18:00:06.609Z,7.53
2023-03-24T18:02:33.091Z,4.00
2023-03-24T18:04:59.599Z,8.18
2023-03-24T18:07:26.006Z,4.75
2023-03-24T18:09:52.464Z,5.45
2023-03-24T18:12:19.232Z,7.25
2023-03-24T18:14:46.018Z,10.82
2023-03-24T18:17:12.758Z,16.20
2023-03-24T18:19:40.259Z,16.77
2023-03-24T18:22:06.689Z,12.88
2023-03-24T18:24:33.353Z,10.05
2023-03-24T18:27:01.092Z,10.68
2023-03-24T18:29:27.586Z,5.88
2023-03-24T18:31:54.589Z,11.82
2023-03-24T18:34:23.088Z,8.98
2023-03-24T18:36:50.079Z,6.03
2023-03-24T18:39:16.948Z,3.70
2023-03-24T18:41:43.620Z,4.65
2023-03-24T18:44:14.168Z,5.22
2023-03-24T18:46:40.818Z,6.15
2023-03-24T18:49:11.978Z,7.35
2023-03-24T18:54:05.571Z,5.97
2023-03-24T18:56:32.885Z,4.88
2023-03-24T18:58:59.329Z,5.75
2023-03-24T19:01:26.107Z,5.20
2023-03-24T19:03:53.825Z,2.92
2023-03-24T19:06:21.789Z,7.63
2023-03-24T19:08:52.376Z,6.82
2023-03-24T19:11:19.201Z,11.05
2023-03-24T19:13:47.249Z,8.90
2023-03-24T19:16:13.719Z,20.15
2023-03-24T19:18:41.160Z,15.90
2023-03-24T19:21:08.379Z,11.52
2023-03-24T19:23:35.832Z,16.27
2023-03-24T19:26:03.476Z,22.33
2023-03-24T19:28:32.142Z,12.27
2023-03-24T19:31:00.663Z,6.18
2023-03-24T19:33:27.701Z,4.97
2023-03-24T19:35:54.332Z,11.23
2023-03-24T19:38:24.848Z,7.22
2023-03-24T19:40:52.825Z,5.35
2023-03-24T19:43:20.566Z,3.47
2023-03-24T19:45:51.173Z,6.28
2023-03-24T19:48:18.106Z,6.95
2023-03-24T19:50:46.070Z,4.13
2023-03-24T19:53:12.874Z,15.43
2023-03-24T19:55:39.448Z,7.32
2023-03-24T19:58:06.448Z,5.47
2023-03-24T20:00:33.347Z,6.28
2023-03-24T20:02:59.901Z,2.97
2023-03-24T20:05:26.537Z,4.80
2023-03-24T20:07:58.452Z,3.88
2023-03-24T20:10:27.247Z,6.18
2023-03-24T20:12:53.831Z,3.97
2023-03-24T20:15:20.383Z,6.03
2023-03-24T20:17:46.998Z,5.85
2023-03-24T20:20:14.507Z,4.28
2023-03-24T20:22:44.189Z,7.45
2023-03-24T20:25:12.582Z,5.53
2023-03-24T20:27:39.954Z,6.07
2023-03-24T20:30:08.232Z,5.13
2023-03-24T20:32:34.939Z,3.65
2023-03-24T20:35:01.448Z,3.88
2023-03-24T20:37:30.404Z,7.65
2023-03-24T20:39:56.882Z,7.53
2023-03-24T20:42:24.452Z,3.42
2023-03-24T20:44:51.042Z,3.72
2023-03-24T20:47:19.136Z,4.07
2023-03-24T20:49:48.642Z,4.60
2023-03-24T20:52:15.161Z,6.72
2023-03-24T20:54:41.632Z,5.32
2023-03-24T20:57:09.570Z,4.22
2023-03-24T20:59:37.820Z,5.50
2023-03-24T21:02:06.143Z,3.78
2023-03-24T21:04:33.435Z,6.72
2023-03-24T21:06:59.987Z,8.02
2023-03-24T21:09:26.614Z,3.70
2023-03-24T21:11:54.473Z,4.70
2023-03-24T21:14:21.030Z,4.72
2023-03-24T21:16:48.127Z,6.07
2023-03-24T21:19:14.659Z,6.68
2023-03-24T21:21:42.809Z,4.60
2023-03-24T21:24:09.313Z,5.90
2023-03-24T21:26:35.920Z,6.53
2023-03-24T21:29:02.324Z,7.60
2023-03-24T21:31:29.733Z,6.20
2023-03-24T21:33:57.023Z,8.77
2023-03-24T21:36:27.305Z,5.55
2023-03-24T21:38:54.117Z,5.67
2023-03-24T21:41:21.564Z,4.40
2023-03-24T21:43:54.144Z,5.30
2023-03-24T21:46:22.565Z,4.85
2023-03-24T21:48:51.761Z,7.78
2023-03-24T21:51:21.094Z,5.93
2023-03-24T21:53:47.759Z,6.15
2023-03-24T21:56:14.525Z,4.60
2023-03-24T21:58:41.468Z,6.80
2023-03-24T22:01:09.093Z,8.32
2023-03-24T22:03:37.270Z,5.20
2023-03-24T22:06:05.315Z,5.78
2023-03-24T22:08:32.141Z,7.82
2023-03-24T22:11:00.716Z,5.00
2023-03-24T22:13:28.456Z,7.07
2023-03-24T22:15:56.353Z,8.30
2023-03-24T22:18:24.501Z,7.53
2023-03-24T22:21:03.372Z,5.28
2023-03-24T22:23:36.536Z,5.50
2023-03-24T22:26:06.264Z,8.90
2023-03-24T22:28:34.738Z,9.25
2023-03-24T22:31:09.482Z,9.27
2023-03-24T22:33:36.439Z,13.15
2023-03-24T22:36:03.659Z,11.30
2023-03-24T22:38:31.051Z,9.07
2023-03-24T22:41:03.663Z,6.78
2023-03-24T22:43:31.001Z,5.95
2023-03-24T22:45:57.615Z,5.35
2023-03-24T22:48:24.162Z,7.95
2023-03-24T22:50:51.378Z,7.38
2023-03-24T22:53:18.169Z,4.90
2023-03-24T22:55:45.075Z,6.82
2023-03-24T22:58:13.360Z,6.65
2023-03-24T23:00:45.381Z,6.88
2023-03-24T23:03:12.204Z,5.13
2023-03-24T23:05:43.452Z,8.00
2023-03-24T23:10:37.243Z,7.25
2023-03-24T23:13:04.108Z,10.32
2023-03-24T23:15:31.897Z,12.07
2023-03-24T23:17:59.272Z,11.55
2023-03-24T23:20:26.212Z,10.00
2023-03-24T23:22:52.649Z,8.85
2023-03-24T23:25:19.419Z,7.47
2023-03-24T23:27:46.572Z,6.50
2023-03-24T23:30:15.258Z,7.57
2023-03-24T23:32:43.565Z,10.95
2023-03-24T23:35:11.325Z,20.65
2023-03-24T23:37:39.529Z,16.63
2023-03-24T23:40:12.629Z,21.38
2023-03-24T23:42:41.718Z,9.20
2023-03-24T23:45:10.932Z,17.00
2023-03-24T23:47:37.628Z,12.88
2023-03-24T23:50:06.249Z,8.73
2023-03-24T23:52:33.174Z,6.82
2023-03-24T23:54:59.578Z,6.00
2023-03-24T23:57:26.257Z,6.22
2023-03-24T23:59:53.668Z,4.97
